Neuburg — 5BQJ2 — position and weather

sailwx.info

Track history (hours):
 
Tides and Currents Weather Stations Pressure Air Temp Water Temp Dewpoint Dewpoint Depression Visibility Wind Speed Wind Dir Waves Ship Positions

Neuburg

Last reported at 2014-Aug-31 11:29 UTC. Time now 2014-Sep-03 07:24 UTC.
Position N 34°46' W 007°14'.

Length 142 m; draft 7.2 m.

Type: Ship (hazmat cat A). MMSI: 212740000.

Date/timePositionNaut miles runAvg speedWind from/ knotsBaromVisibWave heightAir tempDewpointWater temp
2014-Aug-31 11:29N 34°46' W 007°14'1516.4
2014-Aug-31 10:33N 34°57' W 007°02'1616.4
2014-Aug-31 09:33N 35°10' W 006°49'2016.4
2014-Aug-31 08:20N 35°25' W 006°32'20015.4
2014-Aug-30 19:22N 36°26' W 002°38'9416.1
2014-Aug-30 13:29N 37°17' W 000°58'1616.8
2014-Aug-30 12:33N 37°27' W 000°44'1616.1
2014-Aug-30 11:33N 37°40' W 000°31'1716.7
2014-Aug-30 10:33N 37°56' W 000°26'19 1.3
2014-Aug-29 19:31N 38°15' W 000°26'1515.8
2014-Aug-29 18:34N 38°00' W 000°25'1717.0
2014-Aug-29 17:33N 37°43' W 000°28'1716.3
2014-Aug-29 16:32N 37°29' W 000°38'1616.5
2014-Aug-29 15:33N 37°18' W 000°53'4116.9
2014-Aug-29 13:08N 36°50' W 001°31'19717.0
2014-Aug-29 01:33N 35°58' W 005°26'8715.9
2014-Aug-28 20:05N 35°06' W 006°53'1216.9
2014-Aug-28 19:21N 34°57' W 007°02'2916.1
2014-Aug-28 17:33N 34°36' W 007°27'1715.7
2014-Aug-28 16:28N 34°23' W 007°40'9115.3
2014-Aug-28 10:32N 33°17' W 008°55'8216.2
2014-Aug-28 05:29N 32°16' W 009°59'3515.4
2014-Aug-28 03:13N 31°51' W 010°29'1015.2
2014-Aug-28 02:33N 31°43' W 010°36'4615.5
2014-Aug-27 23:33N 31°07' W 011°11'  
2014-Aug-25 19:21N 29°46' W 014°26'  
2014-Aug-22 18:33N 38°10' W 000°24'1717.0
2014-Aug-22 17:34N 37°54' W 000°26'1716.6
2014-Aug-22 16:33N 37°37' W 000°30'1716.2
2014-Aug-22 15:32N 37°24' W 000°43'1716.7
2014-Aug-22 14:31N 37°13' W 000°59'5316.6
2014-Aug-22 11:20N 36°38' W 001°48'1516.5
2014-Aug-22 10:25N 36°28' W 002°02'1415.8
2014-Aug-22 09:33N 36°22' W 002°17'1716.7
2014-Aug-22 08:33N 36°19' W 002°38'12818.1
2014-Aug-22 01:28N 35°60' W 005°15'  
Track history (hours):
 
Tides and Currents Weather Stations Pressure Air Temp Water Temp Dewpoint Dewpoint Depression Visibility Wind Speed Wind Dir Waves Ship Positions

Neuburg

Last reported at 2014-Aug-31 11:29 UTC. Time now 2014-Sep-03 07:24 UTC.
Position N 34°46' W 007°14'.

Length 142 m; draft 7.2 m.

Type: Ship (hazmat cat A). MMSI: 212740000.

Date/timePositionNaut miles runAvg speedWind from/ knotsBaromVisibWave heightAir tempDewpointWater temp
2014-Aug-31 11:29N 34°46' W 007°14'1516.4
2014-Aug-31 10:33N 34°57' W 007°02'1616.4
2014-Aug-31 09:33N 35°10' W 006°49'2016.4
2014-Aug-31 08:20N 35°25' W 006°32'20015.4
2014-Aug-30 19:22N 36°26' W 002°38'9416.1
2014-Aug-30 13:29N 37°17' W 000°58'1616.8
2014-Aug-30 12:33N 37°27' W 000°44'1616.1
2014-Aug-30 11:33N 37°40' W 000°31'1716.7
2014-Aug-30 10:33N 37°56' W 000°26'19 1.3
2014-Aug-29 19:31N 38°15' W 000°26'1515.8
2014-Aug-29 18:34N 38°00' W 000°25'1717.0
2014-Aug-29 17:33N 37°43' W 000°28'1716.3
2014-Aug-29 16:32N 37°29' W 000°38'1616.5
2014-Aug-29 15:33N 37°18' W 000°53'4116.9
2014-Aug-29 13:08N 36°50' W 001°31'19717.0
2014-Aug-29 01:33N 35°58' W 005°26'8715.9
2014-Aug-28 20:05N 35°06' W 006°53'1216.9
2014-Aug-28 19:21N 34°57' W 007°02'2916.1
2014-Aug-28 17:33N 34°36' W 007°27'1715.7
2014-Aug-28 16:28N 34°23' W 007°40'9115.3
2014-Aug-28 10:32N 33°17' W 008°55'8216.2
2014-Aug-28 05:29N 32°16' W 009°59'3515.4
2014-Aug-28 03:13N 31°51' W 010°29'1015.2
2014-Aug-28 02:33N 31°43' W 010°36'4615.5
2014-Aug-27 23:33N 31°07' W 011°11'  
2014-Aug-25 19:21N 29°46' W 014°26'  
2014-Aug-22 18:33N 38°10' W 000°24'1717.0
2014-Aug-22 17:34N 37°54' W 000°26'1716.6
2014-Aug-22 16:33N 37°37' W 000°30'1716.2
2014-Aug-22 15:32N 37°24' W 000°43'1716.7
2014-Aug-22 14:31N 37°13' W 000°59'5316.6
2014-Aug-22 11:20N 36°38' W 001°48'1516.5
2014-Aug-22 10:25N 36°28' W 002°02'1415.8
2014-Aug-22 09:33N 36°22' W 002°17'1716.7
2014-Aug-22 08:33N 36°19' W 002°38'12818.1
2014-Aug-22 01:28N 35°60' W 005°15'  

Dump ship's entire track history